Time;durP1;ratioP1;P1;durP2;ratioP2;P2;SDS_P1;SDS_P2;PMS_P1;PMS_P2;Temp;Humidity;BMP_temperature;BMP_pressure;BME280_temperature;BME280_humidity;BME280_pressure;Samples;Min_cycle;Max_cycle;Signal;HPM_P1;HPM_P2
2022/05/20 00:01:08;;;;;;;21.08;8.50;;;;;;;16.89;100.00;96227.63;5055416;28;20049;-76
2022/05/20 00:03:36;;;;;;;15.30;8.07;;;;;;;16.85;100.00;96242.53;5062037;28;20040;-76
2022/05/20 00:06:02;;;;;;;12.05;7.47;;;;;;;16.83;100.00;96250.03;5069449;28;20493;-77
2022/05/20 00:08:28;;;;;;;15.57;8.15;;;;;;;16.83;100.00;96256.13;5067608;28;20064;-76
2022/05/20 00:10:54;;;;;;;15.25;7.68;;;;;;;16.88;100.00;96257.94;5063658;28;20413;-76
2022/05/20 00:13:21;;;;;;;13.15;7.45;;;;;;;16.84;100.00;96256.91;5047981;28;20045;-76
2022/05/20 00:15:48;;;;;;;17.02;8.00;;;;;;;16.88;100.00;96260.59;5049306;28;20052;-76
2022/05/20 00:18:13;;;;;;;28.52;8.15;;;;;;;16.91;100.00;96252.03;5055013;28;20505;-76
2022/05/20 00:20:39;;;;;;;17.33;8.07;;;;;;;16.77;100.00;96236.81;5067376;28;20375;-76
2022/05/20 00:23:05;;;;;;;17.00;7.57;;;;;;;16.73;100.00;96246.44;5063040;28;20509;-76
2022/05/20 00:25:46;;;;;;;17.00;7.47;;;;;;;16.66;100.00;96251.34;5047666;28;20738;-75
2022/05/20 00:28:21;;;;;;;13.63;7.88;;;;;;;16.67;100.00;96252.91;5048573;28;20049;-76
2022/05/20 00:30:53;;;;;;;13.63;7.88;;;;;;;16.65;100.00;96255.09;5053625;28;20421;-76
2022/05/20 00:33:20;;;;;;;12.00;7.07;;;;;;;16.58;100.00;96255.44;5072318;28;20048;-76
2022/05/20 00:35:46;;;;;;;13.65;7.85;;;;;;;16.55;100.00;96244.59;5054338;28;20052;-76
2022/05/20 00:38:12;;;;;;;19.83;7.40;;;;;;;16.54;100.00;96241.16;5052527;28;20041;-76
2022/05/20 00:40:39;;;;;;;13.95;7.30;;;;;;;16.36;100.00;96236.66;5061398;28;20491;-76
2022/05/20 00:43:14;;;;;;;13.50;7.78;;;;;;;16.31;100.00;96245.50;5072165;28;20694;-76
2022/05/20 00:45:41;;;;;;;15.10;7.07;;;;;;;16.25;100.00;96242.13;5072093;28;20395;-76
2022/05/20 00:48:08;;;;;;;16.27;7.72;;;;;;;16.19;100.00;96229.19;5070244;28;20040;-76
2022/05/20 00:50:36;;;;;;;13.73;7.30;;;;;;;16.21;100.00;96229.69;5069186;28;20052;-76
2022/05/20 00:53:02;;;;;;;17.15;7.55;;;;;;;16.21;100.00;96229.69;5071801;28;20052;-76
2022/05/20 00:55:29;;;;;;;19.13;7.38;;;;;;;16.23;100.00;96227.53;5065672;28;20045;-76
2022/05/20 00:58:04;;;;;;;16.67;7.57;;;;;;;16.18;100.00;96224.97;5053064;28;20049;-76
2022/05/20 01:00:32;;;;;;;18.45;7.80;;;;;;;16.10;100.00;96218.41;5052757;28;20048;-76
2022/05/20 01:03:04;;;;;;;16.35;7.65;;;;;;;16.05;100.00;96219.28;5057572;28;20113;-76
2022/05/20 01:05:43;;;;;;;13.75;6.68;;;;;;;15.97;100.00;96225.22;5071494;28;20048;-76
2022/05/20 01:08:12;;;;;;;12.63;7.38;;;;;;;16.01;100.00;96215.63;5071677;28;20078;-76
2022/05/20 01:10:38;;;;;;;12.15;7.10;;;;;;;16.02;100.00;96206.59;5066102;28;20450;-77
2022/05/20 01:13:04;;;;;;;13.90;7.53;;;;;;;15.92;100.00;96206.75;5053046;28;20037;-76
2022/05/20 01:15:30;;;;;;;14.48;7.63;;;;;;;15.92;100.00;96201.44;5050524;28;20122;-76
2022/05/20 01:17:56;;;;;;;10.52;6.72;;;;;;;15.97;100.00;96197.91;5055631;28;20055;-76
2022/05/20 01:20:27;;;;;;;12.30;7.35;;;;;;;15.95;100.00;96195.53;5056487;28;20044;-76
2022/05/20 01:23:05;;;;;;;14.52;7.22;;;;;;;15.85;100.00;96195.69;5058720;28;20040;-76
2022/05/20 01:25:31;;;;;;;11.00;6.75;;;;;;;15.79;100.00;96186.19;5071555;28;20082;-76
2022/05/20 01:27:58;;;;;;;14.18;7.07;;;;;;;15.86;100.00;96189.28;5059316;28;20037;-76
2022/05/20 01:30:26;;;;;;;14.85;7.40;;;;;;;15.88;100.00;96179.19;5050029;28;20094;-76
2022/05/20 01:32:51;;;;;;;14.23;6.88;;;;;;;15.91;100.00;96183.91;5052553;28;20049;-76
2022/05/20 01:35:41;;;;;;;10.65;6.80;;;;;;;15.89;100.00;96194.03;5060423;28;20099;-76
2022/05/20 01:38:08;;;;;;;11.65;6.10;;;;;;;15.89;100.00;96186.09;5060426;28;20053;-76
2022/05/20 01:41:02;;;;;;;11.55;6.22;;;;;;;15.91;100.00;96189.22;5051138;28;20041;-76
2022/05/20 01:43:42;;;;;;;11.93;6.38;;;;;;;15.90;100.00;96179.69;5051192;28;20057;-76
2022/05/20 01:46:23;;;;;;;10.25;6.13;;;;;;;15.85;100.00;96179.75;5050876;28;20092;-76
2022/05/20 01:49:03;;;;;;;13.80;6.43;;;;;;;15.84;100.00;96178.19;5051300;28;20041;-76
2022/05/20 01:51:37;;;;;;;11.93;5.88;;;;;;;15.81;100.00;96173.44;5050941;28;20048;-76
2022/05/20 01:54:16;;;;;;;10.55;5.78;;;;;;;15.83;100.00;96168.63;5053103;28;20045;-76
2022/05/20 01:56:49;;;;;;;10.38;5.88;;;;;;;15.72;100.00;96155.47;5050997;28;20051;-76
2022/05/20 01:59:24;;;;;;;10.25;6.25;;;;;;;15.71;100.00;96164.50;5064326;28;20059;-76
2022/05/20 02:02:02;;;;;;;10.60;5.78;;;;;;;15.69;100.00;96158.69;5065330;28;20043;-77
2022/05/20 02:04:51;;;;;;;9.07;5.28;;;;;;;15.71;100.00;96159.19;5051921;28;20037;-76
2022/05/20 02:07:22;;;;;;;9.75;5.78;;;;;;;15.69;100.00;96156.03;5064809;28;20044;-76
2022/05/20 02:09:55;;;;;;;10.15;5.30;;;;;;;15.65;100.00;96149.72;5064954;28;20642;-76
2022/05/20 02:12:25;;;;;;;10.30;5.72;;;;;;;15.62;100.00;96139.69;5050550;28;20802;-76
2022/05/20 02:15:04;;;;;;;11.27;5.53;;;;;;;15.59;100.00;96134.97;5051704;28;20092;-76
2022/05/20 02:17:35;;;;;;;9.57;5.50;;;;;;;15.54;100.00;96133.19;5056354;28;20047;-76
2022/05/20 02:20:16;;;;;;;9.57;5.25;;;;;;;15.48;100.00;96134.28;5069991;28;20441;-76
2022/05/20 02:22:46;;;;;;;9.20;5.15;;;;;;;15.47;100.00;96131.94;5066069;28;20514;-76
2022/05/20 02:25:18;;;;;;;9.85;5.45;;;;;;;15.50;100.00;96131.34;5050151;28;20118;-76
2022/05/20 02:27:48;;;;;;;9.15;5.25;;;;;;;15.59;100.00;96134.97;5051223;28;20048;-76
2022/05/20 02:30:21;;;;;;;9.25;4.90;;;;;;;15.53;100.00;96125.47;5057094;28;20041;-76
2022/05/20 02:33:10;;;;;;;11.95;5.03;;;;;;;15.45;100.00;96126.13;5061582;28;20045;-76
2022/05/20 02:35:39;;;;;;;10.30;5.03;;;;;;;15.45;100.00;96123.47;5050054;28;20068;-76
2022/05/20 02:38:11;;;;;;;10.07;4.90;;;;;;;15.31;100.00;96113.56;5066293;28;20040;-76
2022/05/20 02:40:39;;;;;;;9.32;5.60;;;;;;;15.35;100.00;96122.53;5058352;28;20447;-76
2022/05/20 02:43:05;;;;;;;12.23;5.05;;;;;;;15.28;100.00;96130.03;5049494;28;20666;-76
2022/05/20 02:45:31;;;;;;;7.55;4.68;;;;;;;15.24;100.00;96132.47;5049257;28;20037;-76
2022/05/20 02:47:57;;;;;;;11.55;5.22;;;;;;;15.25;100.00;96130.59;5049900;28;20041;-76
2022/05/20 02:50:22;;;;;;;10.23;5.13;;;;;;;15.15;100.00;96128.84;5050581;28;20558;-76
2022/05/20 02:52:48;;;;;;;9.27;5.15;;;;;;;15.03;100.00;96133.78;5049803;28;20059;-76
2022/05/20 02:55:14;;;;;;;7.97;4.60;;;;;;;15.01;100.00;96128.78;5049937;28;20075;-75
2022/05/20 02:57:39;;;;;;;9.70;5.22;;;;;;;14.92;100.00;96133.09;5049983;28;20601;-76
2022/05/20 03:05:35;;;;;;;9.13;5.05;;;;;;;14.62;100.00;96124.38;5050343;28;20052;-77
2022/05/20 03:08:00;;;;;;;8.65;5.03;;;;;;;14.62;100.00;96132.31;5050148;28;20044;-76
2022/05/20 03:10:26;;;;;;;10.75;5.03;;;;;;;14.48;100.00;96134.00;5055737;28;20124;-76
2022/05/20 03:13:01;;;;;;;10.57;5.40;;;;;;;14.50;100.00;96126.59;5050229;28;20075;-76
2022/05/20 03:15:26;;;;;;;8.75;5.20;;;;;;;14.37;100.00;96134.13;5050084;28;20454;-76
2022/05/20 03:17:52;;;;;;;11.60;5.47;;;;;;;14.26;100.00;96129.97;5052814;28;20051;-77
2022/05/20 03:20:17;;;;;;;8.70;5.03;;;;;;;14.14;100.00;96130.31;5051788;28;20037;-77
2022/05/20 03:22:43;;;;;;;9.13;5.10;;;;;;;14.21;100.00;96124.72;5053920;28;20060;-76
2022/05/20 03:25:09;;;;;;;12.63;5.22;;;;;;;14.25;100.00;96125.75;5069826;28;20109;-76
2022/05/20 03:27:35;;;;;;;11.57;5.25;;;;;;;14.14;100.00;96124.25;5064113;28;20033;-77
2022/05/20 03:30:01;;;;;;;8.52;5.55;;;;;;;14.06;100.00;96132.78;5049095;28;20391;-77
2022/05/20 03:32:26;;;;;;;8.50;5.32;;;;;;;14.07;100.00;96123.78;5068243;28;20531;-77
2022/05/20 03:34:52;;;;;;;8.55;5.28;;;;;;;14.09;100.00;96132.22;5068705;28;20051;-77
2022/05/20 03:37:17;;;;;;;7.50;5.05;;;;;;;14.10;100.00;96124.00;5049831;28;20044;-77
2022/05/20 03:39:43;;;;;;;11.30;5.68;;;;;;;13.98;100.00;96126.22;5053472;28;20481;-76
2022/05/20 03:42:08;;;;;;;7.57;4.70;;;;;;;13.94;100.00;96125.97;5067542;28;20450;-76
2022/05/20 03:44:34;;;;;;;11.45;6.28;;;;;;;13.95;100.00;96122.28;5069370;28;20044;-77
2022/05/20 03:47:01;;;;;;;11.32;5.35;;;;;;;13.73;100.00;96125.31;5067949;28;20122;-76
2022/05/20 03:49:28;;;;;;;10.68;5.93;;;;;;;13.65;100.00;96129.34;5052021;28;20045;-77
2022/05/20 03:51:55;;;;;;;9.48;5.22;;;;;;;13.85;100.00;96130.28;5050363;28;20037;-77
2022/05/20 03:54:24;;;;;;;12.70;6.03;;;;;;;13.88;100.00;96127.09;5048263;28;20490;-76
2022/05/20 03:56:50;;;;;;;9.57;5.47;;;;;;;13.88;100.00;96127.09;5049151;28;20053;-76
2022/05/20 03:59:15;;;;;;;9.77;5.80;;;;;;;13.90;100.00;96132.88;5049282;28;20052;-76
2022/05/20 04:01:58;;;;;;;7.40;4.88;;;;;;;13.96;100.00;96128.34;5049123;28;20045;-76
2022/05/20 04:04:33;;;;;;;10.70;5.10;;;;;;;13.95;100.00;96132.84;5050785;28;20044;-76
2022/05/20 04:07:01;;;;;;;8.52;4.85;;;;;;;13.94;100.00;96131.25;5053629;28;20052;-77
2022/05/20 04:09:26;;;;;;;10.68;5.63;;;;;;;13.92;100.00;96133.41;5069799;28;20033;-77
2022/05/20 04:11:55;;;;;;;9.60;5.50;;;;;;;13.96;100.00;96129.13;5063847;28;20037;-76
2022/05/20 04:14:25;;;;;;;9.50;5.28;;;;;;;13.91;100.00;96126.53;5071613;28;20040;-77
2022/05/20 04:16:55;;;;;;;10.60;5.70;;;;;;;13.99;100.00;96128.59;5071479;28;20040;-76
2022/05/20 04:19:22;;;;;;;8.63;5.22;;;;;;;14.01;100.00;96130.97;5054151;28;20529;-76
2022/05/20 04:21:50;;;;;;;8.65;5.22;;;;;;;14.07;100.00;96140.44;5053989;28;20098;-76
2022/05/20 04:24:16;;;;;;;15.73;5.10;;;;;;;14.12;100.00;96136.97;5067462;28;20036;-76
2022/05/20 04:26:41;;;;;;;11.10;5.20;;;;;;;14.06;100.00;96138.06;5070241;28;20048;-76
2022/05/20 04:29:07;;;;;;;8.27;5.07;;;;;;;14.18;100.00;96141.16;5052797;28;20044;-76
2022/05/20 04:31:33;;;;;;;11.30;5.80;;;;;;;14.27;100.00;96138.72;5052932;28;20048;-77
2022/05/20 04:33:58;;;;;;;9.73;5.53;;;;;;;14.35;100.00;96135.44;5054295;28;20052;-76
2022/05/20 04:36:23;;;;;;;9.20;5.20;;;;;;;14.38;100.00;96140.22;5071262;28;20106;-77
2022/05/20 04:38:49;;;;;;;9.05;5.80;;;;;;;14.49;100.00;96140.91;5070531;28;20114;-77
2022/05/20 04:46:58;;;;;;;8.27;5.07;;;;;;;14.69;100.00;96151.34;5070467;28;20110;-76
2022/05/20 04:49:25;;;;;;;11.23;5.38;;;;;;;14.78;100.00;96145.44;5052784;28;20045;-77
2022/05/20 04:51:51;;;;;;;7.47;5.20;;;;;;;14.86;100.00;96150.13;5053744;28;20051;-76
2022/05/20 04:57:01;;;;;;;8.43;5.57;;;;;;;15.00;100.00;96144.97;5051607;28;20045;-77
2022/05/20 04:59:26;;;;;;;8.57;5.65;;;;;;;15.05;100.00;96148.31;5052194;28;20048;-76
2022/05/20 05:01:52;;;;;;;9.43;5.70;;;;;;;15.12;100.00;96147.97;5051868;28;20049;-76
2022/05/20 05:04:20;;;;;;;9.00;5.60;;;;;;;15.19;100.00;96152.97;5052105;28;20045;-77
2022/05/20 05:06:46;;;;;;;10.20;5.57;;;;;;;15.29;100.00;96147.53;5052140;28;20041;-77
2022/05/20 05:09:12;;;;;;;9.88;5.68;;;;;;;15.39;100.00;96152.72;5051731;28;20045;-77
2022/05/20 05:11:39;;;;;;;9.38;5.53;;;;;;;15.50;100.00;96148.06;5055825;28;20036;-77
2022/05/20 05:14:10;;;;;;;12.32;6.22;;;;;;;15.59;100.00;96150.88;5072154;28;20040;-76
2022/05/20 05:16:37;;;;;;;10.05;5.85;;;;;;;15.79;100.00;96149.03;5070072;28;20044;-76
2022/05/20 05:19:03;;;;;;;9.60;5.53;;;;;;;15.96;100.00;96162.63;5056257;28;20052;-76
2022/05/20 05:21:28;;;;;;;11.43;5.45;;;;;;;16.05;100.00;96142.31;5071948;28;20041;-76
2022/05/20 05:23:54;;;;;;;9.98;5.43;;;;;;;16.15;100.00;96151.19;5059045;28;20116;-76
2022/05/20 05:26:21;;;;;;;10.15;5.45;;;;;;;16.22;100.00;96152.41;5072543;28;20501;-76
2022/05/20 05:28:46;;;;;;;10.18;5.13;;;;;;;16.34;100.00;96149.28;5054846;28;20614;-76
2022/05/20 05:31:12;;;;;;;11.52;4.88;;;;;;;16.55;100.00;96154.25;5051927;28;20079;-77
2022/05/20 05:33:37;;;;;;;8.43;5.15;;;;;;;16.61;100.00;96153.13;5050892;28;20045;-76
2022/05/20 05:36:03;;;;;;;9.32;4.97;;;;;;;16.75;100.00;96143.28;5052458;28;20041;-78
2022/05/20 05:38:28;;;;;;;10.30;4.93;;;;;;;17.02;100.00;96136.44;5052768;28;20041;-77
2022/05/20 05:40:54;;;;;;;9.40;5.30;;;;;;;17.26;100.00;96140.78;5051973;28;20045;-76
2022/05/20 05:43:20;;;;;;;8.02;4.82;;;;;;;17.42;100.00;96144.69;5067430;28;20493;-76
2022/05/20 05:45:45;;;;;;;6.40;4.65;;;;;;;17.79;99.47;96142.88;5058029;28;20071;-76
2022/05/20 05:48:11;;;;;;;9.23;4.63;;;;;;;17.94;96.21;96138.31;5051348;28;20491;-76
2022/05/20 05:50:40;;;;;;;9.45;4.93;;;;;;;18.22;91.83;96138.22;5066943;28;20090;-76
2022/05/20 05:53:13;;;;;;;7.97;4.47;;;;;;;18.39;90.81;96138.34;5071562;28;20074;-76
2022/05/20 05:55:40;;;;;;;11.57;4.38;;;;;;;18.61;91.40;96144.75;5070674;28;20498;-76
2022/05/20 05:58:06;;;;;;;8.52;4.55;;;;;;;18.66;89.25;96141.94;5056473;28;20048;-77
2022/05/20 06:00:32;;;;;;;7.38;4.22;;;;;;;18.91;88.74;96137.09;5051349;28;20121;-76
2022/05/20 06:02:57;;;;;;;11.55;5.00;;;;;;;18.97;88.47;96141.19;5051687;28;20075;-76
2022/05/20 06:05:23;;;;;;;8.02;4.32;;;;;;;19.10;84.18;96142.94;5065185;28;20032;-76
2022/05/20 06:07:48;;;;;;;14.13;4.78;;;;;;;19.33;82.89;96135.63;5078447;28;20028;-76
2022/05/20 06:10:14;;;;;;;7.97;4.75;;;;;;;19.33;86.50;96126.84;5077072;28;20112;-75
2022/05/20 06:12:40;;;;;;;10.73;4.70;;;;;;;19.30;85.89;96132.81;5086007;28;20056;-75
2022/05/20 06:15:09;;;;;;;7.63;4.40;;;;;;;19.38;84.69;96138.19;5098851;28;20093;-75
2022/05/20 06:17:35;;;;;;;7.57;4.47;;;;;;;19.46;81.48;96144.63;5090344;28;20051;-76
2022/05/20 06:20:01;;;;;;;7.18;4.40;;;;;;;19.50;78.93;96137.56;5084924;28;20032;-74
2022/05/20 06:22:27;;;;;;;10.30;4.30;;;;;;;19.78;75.79;96142.63;5090320;28;20025;-75
2022/05/20 06:24:53;;;;;;;9.07;4.68;;;;;;;19.99;76.34;96142.81;5078768;28;20044;-74
2022/05/20 06:27:18;;;;;;;10.98;4.88;;;;;;;20.12;74.48;96140.31;5078105;28;20077;-74
2022/05/20 06:29:48;;;;;;;8.02;4.47;;;;;;;20.06;75.13;96139.69;5078317;28;20126;-73
2022/05/20 06:32:14;;;;;;;10.48;4.78;;;;;;;20.28;73.06;96137.94;5097185;28;20028;-75
2022/05/20 06:40:12;;;;;;;10.48;4.80;;;;;;;20.48;73.35;96137.28;5058671;28;20048;-77
2022/05/20 06:42:38;;;;;;;20.55;4.95;;;;;;;20.60;73.23;96137.41;5050869;28;20104;-77
2022/05/20 06:45:04;;;;;;;7.20;4.40;;;;;;;20.65;71.98;96135.69;5054961;28;20037;-78
2022/05/20 06:47:30;;;;;;;9.38;4.20;;;;;;;20.62;71.59;96139.00;5070800;28;20098;-78
2022/05/20 06:49:55;;;;;;;10.95;4.63;;;;;;;20.78;70.39;96140.06;5066693;28;20045;-77
2022/05/20 06:52:21;;;;;;;6.15;4.15;;;;;;;20.76;70.75;96137.72;5071608;28;20044;-77
2022/05/20 06:54:47;;;;;;;9.07;4.82;;;;;;;20.85;68.92;96140.38;5072026;28;20399;-77
2022/05/20 06:57:17;;;;;;;7.53;4.03;;;;;;;21.02;71.03;96139.53;5071211;28;20044;-77
2022/05/20 06:59:43;;;;;;;10.10;4.28;;;;;;;21.11;69.77;96136.81;5069870;28;20051;-77
2022/05/20 07:02:09;;;;;;;10.43;4.75;;;;;;;21.11;68.21;96137.56;5069632;28;20417;-77
2022/05/20 07:04:34;;;;;;;9.18;4.80;;;;;;;21.31;66.85;96137.19;5069748;28;20045;-77
2022/05/20 07:07:01;;;;;;;8.65;5.13;;;;;;;21.29;69.07;96132.94;5069094;28;20090;-77
2022/05/20 07:09:28;;;;;;;7.13;4.72;;;;;;;21.52;66.64;96135.38;5070653;28;20106;-77
2022/05/20 07:11:53;;;;;;;11.10;4.93;;;;;;;21.63;69.81;96130.41;5050604;28;20457;-77
2022/05/20 07:14:19;;;;;;;8.82;4.70;;;;;;;21.74;65.43;96136.16;5053926;28;20496;-78
2022/05/20 07:16:44;;;;;;;9.07;4.70;;;;;;;21.86;64.05;96127.41;5062617;28;20044;-78
2022/05/20 07:19:10;;;;;;;8.63;4.80;;;;;;;21.95;65.00;96131.59;5054901;28;20041;-77
2022/05/20 07:21:36;;;;;;;8.52;4.70;;;;;;;22.07;63.42;96122.06;5061683;28;20108;-76
2022/05/20 07:24:04;;;;;;;10.85;4.80;;;;;;;22.13;61.84;96136.81;5070743;28;20037;-76
2022/05/20 07:26:30;;;;;;;8.55;5.25;;;;;;;22.18;61.20;96133.91;5070607;28;20048;-77
2022/05/20 07:28:57;;;;;;;9.48;4.95;;;;;;;22.28;62.33;96122.81;5065429;28;20592;-78
2022/05/20 07:31:24;;;;;;;10.23;4.75;;;;;;;22.45;60.65;96131.81;5060668;28;20059;-77
2022/05/20 07:33:53;;;;;;;7.53;4.70;;;;;;;22.54;58.94;96119.09;5064439;28;20041;-77
2022/05/20 07:36:19;;;;;;;8.68;5.00;;;;;;;22.63;58.76;96127.84;5050869;28;20044;-77
2022/05/20 07:38:45;;;;;;;8.43;5.13;;;;;;;22.79;56.83;96121.84;5060546;28;20055;-77
2022/05/20 07:41:11;;;;;;;7.90;5.05;;;;;;;22.73;59.43;96120.47;5049428;28;20124;-77
2022/05/20 07:43:38;;;;;;;11.20;5.10;;;;;;;22.88;58.01;96122.50;5051386;28;20029;-77
2022/05/20 07:46:03;;;;;;;11.90;5.72;;;;;;;23.04;56.51;96124.53;5050668;28;20045;-76
2022/05/20 07:48:30;;;;;;;10.63;5.07;;;;;;;23.22;54.88;96117.84;5050624;28;20495;-78
2022/05/20 07:51:02;;;;;;;7.70;5.03;;;;;;;23.25;54.43;96114.50;5050672;28;20041;-77
2022/05/20 07:53:36;;;;;;;9.68;4.97;;;;;;;23.41;53.14;96111.13;5052131;28;20744;-77
2022/05/20 07:56:05;;;;;;;;;;;;;;;23.41;53.80;96122.66;5056088;28;20117;-77
2022/05/20 07:58:36;;;;;;;12.02;5.10;;;;;;;23.54;51.79;96115.34;5068634;28;19925;-77
2022/05/20 08:01:03;;;;;;;8.88;4.95;;;;;;;23.58;53.49;96110.88;5061257;28;20037;-77
2022/05/20 08:06:17;;;;;;;10.75;5.65;;;;;;;23.67;53.93;96114.22;5049436;28;20037;-77
2022/05/20 08:08:43;;;;;;;10.52;4.82;;;;;;;23.86;52.86;96110.97;5059903;28;20037;-76
2022/05/20 08:11:08;;;;;;;11.32;4.97;;;;;;;23.82;50.61;96103.88;5050800;28;20441;-77
2022/05/20 08:13:34;;;;;;;10.73;5.20;;;;;;;23.88;49.71;96102.56;5050420;28;20091;-77
2022/05/20 08:16:00;;;;;;;8.98;4.63;;;;;;;24.14;50.06;96104.03;5062810;28;20413;-77
2022/05/20 08:18:26;;;;;;;10.77;5.32;;;;;;;24.33;50.29;96095.31;5052740;28;20044;-77
2022/05/20 08:20:52;;;;;;;9.48;4.95;;;;;;;24.45;48.33;96095.25;5050286;28;20041;-77
2022/05/20 08:23:18;;;;;;;7.53;4.85;;;;;;;24.34;49.10;96091.50;5062316;28;20041;-77
2022/05/20 08:25:43;;;;;;;10.40;5.47;;;;;;;24.32;48.25;96099.91;5053406;28;20041;-77
2022/05/20 08:28:09;;;;;;;9.45;5.05;;;;;;;24.31;48.17;96098.34;5050406;28;20696;-77
2022/05/20 08:30:35;;;;;;;10.52;5.00;;;;;;;24.07;49.08;96096.53;5050378;28;20052;-77
2022/05/20 08:33:00;;;;;;;7.57;4.82;;;;;;;24.16;50.11;96088.31;5064888;28;20043;-77
2022/05/20 08:35:27;;;;;;;13.95;5.20;;;;;;;24.37;49.45;96091.59;5063439;28;20052;-77
2022/05/20 08:37:53;;;;;;;12.25;4.90;;;;;;;24.84;46.46;96083.91;5069359;28;20118;-77
2022/05/20 08:40:29;;;;;;;11.68;5.25;;;;;;;24.86;47.37;96079.75;5053254;28;20040;-77
2022/05/20 08:42:58;;;;;;;14.63;5.80;;;;;;;24.85;47.28;96082.78;5052473;28;20045;-77
2022/05/20 08:45:27;;;;;;;9.70;5.53;;;;;;;24.90;46.92;96074.47;5052261;28;20491;-77
2022/05/20 08:47:53;;;;;;;8.95;5.75;;;;;;;24.77;46.56;96070.28;5054117;28;20102;-77
2022/05/20 08:50:21;;;;;;;8.90;5.15;;;;;;;24.77;48.00;96064.91;5052901;28;20045;-77
2022/05/20 08:52:49;;;;;;;8.15;5.00;;;;;;;24.96;47.91;96067.69;5055930;28;20495;-77
2022/05/20 08:55:14;;;;;;;12.07;5.60;;;;;;;25.19;46.24;96058.97;5054714;28;20037;-75
2022/05/20 08:57:47;;;;;;;8.55;4.95;;;;;;;25.39;45.56;96057.91;5053004;28;20041;-75
2022/05/20 09:00:14;;;;;;;9.70;5.75;;;;;;;25.14;45.96;96062.72;5052994;28;20068;-77
2022/05/20 09:02:40;;;;;;;7.97;5.10;;;;;;;25.14;46.60;96059.22;5071863;28;20041;-77
2022/05/20 09:05:23;;;;;;;15.07;6.43;;;;;;;25.13;47.85;96063.84;5072269;28;20106;-76
2022/05/20 09:07:59;;;;;;;8.77;5.72;;;;;;;25.01;47.75;96058.56;5068371;28;20055;-76
2022/05/20 09:10:49;;;;;;;8.95;5.57;;;;;;;25.37;46.83;96054.78;5051739;28;20124;-76
2022/05/20 09:16:23;;;;;;;10.02;6.03;;;;;;;25.40;46.89;96047.88;5051704;28;20049;-76
2022/05/20 09:19:16;;;;;;;9.52;5.72;;;;;;;25.17;46.82;96050.44;5069807;28;20124;-75
2022/05/20 09:21:44;;;;;;;9.32;6.00;;;;;;;25.74;45.99;96051.69;5059601;28;20056;-77
2022/05/20 09:24:21;;;;;;;12.98;5.78;;;;;;;25.84;46.07;96047.63;5051666;28;20562;-76
2022/05/20 09:26:51;;;;;;;10.82;5.97;;;;;;;25.97;45.28;96045.56;5051619;28;20033;-76
2022/05/20 09:29:44;;;;;;;8.95;5.68;;;;;;;26.03;46.19;96036.09;5052296;28;20043;-76
2022/05/20 09:32:23;;;;;;;9.93;5.72;;;;;;;26.03;45.69;96033.41;5051141;28;20067;-76
2022/05/20 09:35:04;;;;;;;10.32;5.50;;;;;;;26.17;44.41;96029.41;5051691;28;20041;-76
2022/05/20 09:37:32;;;;;;;14.02;6.05;;;;;;;26.29;44.60;96031.91;5061668;28;20063;-77
2022/05/20 09:40:14;;;;;;;12.65;6.80;;;;;;;26.28;43.95;96020.34;5065169;28;20071;-76
2022/05/20 09:42:58;;;;;;;11.80;5.80;;;;;;;26.57;45.43;96015.44;5062924;28;20044;-76
2022/05/20 09:45:25;;;;;;;13.02;6.30;;;;;;;26.86;44.73;96025.94;5071514;28;20060;-77
2022/05/20 09:47:55;;;;;;;10.45;6.15;;;;;;;26.76;42.70;96025.41;5071049;28;20041;-76
2022/05/20 09:50:28;;;;;;;16.35;6.97;;;;;;;26.36;45.14;96015.88;5058627;28;20112;-76
2022/05/20 09:53:00;;;;;;;11.27;6.60;;;;;;;26.38;44.00;96019.00;5059611;28;20044;-76
2022/05/20 09:55:35;;;;;;;10.85;6.22;;;;;;;26.62;43.19;96006.25;5070918;28;20036;-76
2022/05/20 09:58:16;;;;;;;14.55;6.03;;;;;;;26.90;43.28;96005.19;5070835;28;20138;-75
2022/05/20 10:00:53;;;;;;;14.23;6.10;;;;;;;27.02;43.38;95996.84;5051953;28;20056;-76
2022/05/20 10:03:31;;;;;;;17.27;6.97;;;;;;;27.22;42.55;95999.44;5050498;28;20041;-76
2022/05/20 10:06:07;;;;;;;21.10;6.55;;;;;;;27.25;42.38;95988.69;5050965;28;20045;-76
2022/05/20 10:08:42;;;;;;;11.15;5.88;;;;;;;27.32;44.48;95988.00;5066729;28;20037;-76
2022/05/20 10:11:19;;;;;;;13.35;6.07;;;;;;;27.79;42.82;95989.34;5065115;28;20036;-76
2022/05/20 10:13:53;;;;;;;11.02;5.78;;;;;;;27.85;41.27;95986.31;5054619;28;20048;-76
2022/05/20 10:16:56;;;;;;;14.65;6.05;;;;;;;27.88;39.56;95985.56;5055143;28;20051;-76
2022/05/20 10:19:50;;;;;;;11.93;6.20;;;;;;;28.19;37.82;95978.97;5069432;28;20051;-76
2022/05/20 10:22:43;;;;;;;12.70;6.00;;;;;;;28.37;38.67;95968.28;5070777;28;20040;-76
2022/05/20 10:25:17;;;;;;;11.23;5.93;;;;;;;28.40;37.84;95970.22;5069332;28;20044;-76
2022/05/20 10:27:51;;;;;;;9.40;5.47;;;;;;;28.84;39.08;95964.00;5054279;28;20060;-76
2022/05/20 10:33:12;;;;;;;14.73;5.88;;;;;;;29.17;37.41;95961.47;5064279;28;20483;-76
2022/05/20 10:36:10;;;;;;;9.93;5.90;;;;;;;29.50;36.41;95954.28;5070199;28;20040;-76
2022/05/20 10:39:03;;;;;;;9.65;5.40;;;;;;;29.96;33.61;95952.88;5050558;28;20052;-76
2022/05/20 10:42:00;;;;;;;9.52;5.85;;;;;;;30.33;33.41;95940.88;5050368;28;20044;-77
2022/05/20 10:50:55;;;;;;;11.23;5.82;;;;;;;30.92;32.07;95930.38;5050078;28;20422;-76
2022/05/20 10:53:52;;;;;;;11.77;5.75;;;;;;;30.83;32.58;95932.72;5065622;28;20041;-76
2022/05/20 10:56:21;;;;;;;14.57;5.78;;;;;;;30.83;32.88;95921.84;5050035;28;20045;-76
2022/05/20 10:59:08;;;;;;;10.85;6.13;;;;;;;31.49;31.48;95917.72;5049728;28;20450;-76
2022/05/20 11:01:36;;;;;;;9.57;5.60;;;;;;;31.79;30.52;95913.72;5049818;28;20045;-76
2022/05/20 11:04:29;;;;;;;9.85;5.20;;;;;;;32.14;29.24;95911.97;5048638;28;20041;-76
2022/05/20 11:06:55;;;;;;;11.10;5.68;;;;;;;32.55;28.11;95908.47;5050985;28;20071;-75
2022/05/20 11:09:33;;;;;;;11.93;5.60;;;;;;;32.22;28.93;95907.97;5049242;28;20037;-75
2022/05/20 11:12:04;;;;;;;10.02;5.82;;;;;;;32.26;28.55;95903.28;5049702;28;20043;-75
2022/05/20 11:14:32;;;;;;;11.13;5.55;;;;;;;32.36;29.05;95911.78;5048509;28;20059;-76
2022/05/20 11:17:03;;;;;;;10.73;5.90;;;;;;;32.29;28.28;95907.91;5051857;28;20048;-77
2022/05/20 11:19:44;;;;;;;12.40;5.78;;;;;;;32.41;28.98;95914.06;5049518;28;20052;-75
2022/05/20 11:22:28;;;;;;;10.30;5.50;;;;;;;31.32;30.82;95896.84;5065032;28;20041;-76
2022/05/20 11:25:26;;;;;;;10.13;5.75;;;;;;;32.62;28.91;95896.75;5069093;28;20513;-76
2022/05/20 11:28:06;;;;;;;12.65;5.10;;;;;;;32.60;28.16;95894.44;5065695;28;20430;-76
2022/05/20 11:31:07;;;;;;;11.93;5.70;;;;;;;33.03;27.53;95887.78;5049553;28;20048;-76
2022/05/20 11:33:39;;;;;;;9.18;5.40;;;;;;;33.10;28.61;95876.00;5049601;28;20041;-76
2022/05/20 11:36:21;;;;;;;12.60;5.07;;;;;;;33.43;28.09;95877.16;5050883;28;20045;-77
2022/05/20 11:38:53;;;;;;;9.88;5.13;;;;;;;33.18;28.12;95874.72;5048762;28;20421;-76
2022/05/20 11:41:44;;;;;;;9.07;4.90;;;;;;;33.07;28.29;95871.34;5049556;28;20190;-75
2022/05/20 11:44:19;;;;;;;10.95;5.88;;;;;;;33.39;27.97;95870.19;5048285;28;20057;-75
2022/05/20 11:47:15;;;;;;;11.27;5.35;;;;;;;33.59;30.02;95865.63;5050266;28;20846;-76
2022/05/20 11:50:11;;;;;;;10.52;5.22;;;;;;;33.36;27.24;95862.84;5049031;28;20052;-76
2022/05/20 11:52:37;;;;;;;7.85;5.22;;;;;;;33.22;29.16;95855.63;5055556;28;20505;-77
2022/05/20 11:55:12;;;;;;;10.68;5.70;;;;;;;33.33;27.57;95857.03;5051708;28;20057;-76
2022/05/20 11:57:43;;;;;;;10.90;5.65;;;;;;;33.12;29.81;95851.84;5053613;28;20045;-76
2022/05/20 12:00:13;;;;;;;13.00;5.88;;;;;;;33.11;27.34;95844.81;5067444;28;20098;-76
2022/05/20 12:02:53;;;;;;;9.93;4.95;;;;;;;34.05;26.50;95865.34;5050321;28;20509;-76
2022/05/20 12:05:24;;;;;;;12.27;5.38;;;;;;;34.36;26.20;95846.91;5049819;28;20052;-76
2022/05/20 12:07:50;;;;;;;9.23;5.57;;;;;;;34.36;27.53;95842.22;5060819;28;20059;-76
2022/05/20 12:10:16;;;;;;;9.75;5.40;;;;;;;35.29;24.80;95843.56;5067525;28;20494;-77
2022/05/20 12:13:10;;;;;;;10.77;5.28;;;;;;;34.80;25.45;95842.22;5068657;28;20047;-76
2022/05/20 12:15:43;;;;;;;9.07;5.40;;;;;;;34.92;25.58;95842.78;5069093;28;20059;-76